SKUI/UIB METAR and TAF weather

Enter ICAO airport designator
Station Type Date Time Source
SKUI METAR 2019/04/25 00:00 UTC NOAA

SKUI 250000Z 06005KT 9999 SCT025 FEW030CB 28/25 A2978 RMK CB/SE/SW


Station Type Date Time Source
SKUI Decoded METAR 2019/04/25 00:00 UTC NOAA

Quibdo / El Carano, Colombia (SKUI) 05-43N 076-37W
Apr 24, 2019 - 08:00 PM EDT / 2019.04.25 0000 UTC
Wind: from the ENE (060 degrees) at 6 MPH (5 KT):0
Visibility: greater than 7 mile(s):0
Sky conditions: partly cloudy
Weather: Cumulonimbus clouds observed
Temperature: 82 F (28 C)
Dew Point: 77 F (25 C)
Relative Humidity: 83%
Pressure (altimeter): 29.78 in. Hg (1008 hPa)
ob: SKUI 250000Z 06005KT 9999 SCT025 FEW030CB 28/25 A2978 RMK CB/SE/SW
cycle: 0

Station Type Date Time Source
SKUI TAF UTC NOAA

Error!

Example: see airport list